createdAt,value
2023-04-29T00:02:03.368Z,6.37
2023-04-29T00:04:37.172Z,6.57
2023-04-29T00:07:16.903Z,5.97
2023-04-29T00:09:50.739Z,5.67
2023-04-29T00:12:26.134Z,6.00
2023-04-29T00:15:01.961Z,6.83
2023-04-29T00:17:35.654Z,6.17
2023-04-29T00:20:09.372Z,6.10
2023-04-29T00:22:42.819Z,6.70
2023-04-29T00:25:16.411Z,7.07
2023-04-29T00:27:50.028Z,8.90
2023-04-29T00:30:25.913Z,6.90
2023-04-29T00:32:59.713Z,7.03
2023-04-29T00:35:33.531Z,7.83
2023-04-29T00:38:07.244Z,7.97
2023-04-29T00:40:41.004Z,7.30
2023-04-29T00:43:14.229Z,7.33
2023-04-29T00:45:49.146Z,8.37
2023-04-29T00:48:22.412Z,8.47
2023-04-29T00:50:56.101Z,8.00
2023-04-29T00:53:29.533Z,8.17
2023-04-29T00:56:03.449Z,7.97
2023-04-29T00:58:37.843Z,8.60
2023-04-29T01:01:12.988Z,8.83
2023-04-29T01:03:46.858Z,10.10
2023-04-29T01:06:32.062Z,8.80
2023-04-29T01:09:20.878Z,8.80
2023-04-29T01:12:03.299Z,9.73
2023-04-29T01:14:42.178Z,9.97
2023-04-29T01:17:22.543Z,10.43
2023-04-29T01:19:58.928Z,10.55
2023-04-29T01:22:32.683Z,9.87
2023-04-29T01:25:08.010Z,10.93
2023-04-29T01:28:09.119Z,10.60
2023-04-29T01:30:55.133Z,9.85
2023-04-29T01:33:33.600Z,10.73
2023-04-29T01:36:24.807Z,10.10
2023-04-29T01:39:07.463Z,10.50
2023-04-29T01:41:48.664Z,9.98
2023-04-29T01:44:32.630Z,10.07
2023-04-29T01:47:06.836Z,10.15
2023-04-29T01:49:47.948Z,11.20
2023-04-29T01:52:21.197Z,10.23
2023-04-29T01:54:59.427Z,10.35
2023-04-29T01:57:41.542Z,10.20
2023-04-29T02:00:36.484Z,9.83
2023-04-29T02:03:10.241Z,10.32
2023-04-29T02:05:55.573Z,8.90
2023-04-29T02:08:29.199Z,10.38
2023-04-29T02:11:03.685Z,9.70
2023-04-29T02:13:44.505Z,9.68
2023-04-29T02:16:20.432Z,9.70
2023-04-29T02:18:59.964Z,9.30
2023-04-29T02:21:33.561Z,8.98
2023-04-29T02:24:07.268Z,8.55
2023-04-29T02:26:40.726Z,8.45
2023-04-29T02:29:15.891Z,9.57
2023-04-29T02:31:50.394Z,9.40
2023-04-29T02:34:23.623Z,8.65
2023-04-29T02:36:56.654Z,8.70
2023-04-29T02:39:29.851Z,9.63
2023-04-29T02:42:03.191Z,9.43
2023-04-29T02:44:38.537Z,9.18
2023-04-29T02:47:12.006Z,8.45
2023-04-29T02:49:45.518Z,8.15
2023-04-29T02:52:18.827Z,7.75
2023-04-29T02:54:53.503Z,9.25
2023-04-29T02:57:27.135Z,8.15
2023-04-29T03:00:02.557Z,9.77
2023-04-29T03:02:37.611Z,8.95
2023-04-29T03:05:12.256Z,9.43
2023-04-29T03:07:47.809Z,9.32
2023-04-29T03:10:21.867Z,10.05
2023-04-29T03:12:55.535Z,9.05
2023-04-29T03:15:31.234Z,9.07
2023-04-29T03:18:06.469Z,7.95
2023-04-29T03:20:40.839Z,9.07
2023-04-29T03:23:13.764Z,8.63
2023-04-29T03:25:46.715Z,9.60
2023-04-29T03:28:19.833Z,8.98
2023-04-29T03:30:59.181Z,8.45
2023-04-29T03:33:32.240Z,7.75
2023-04-29T03:36:07.081Z,8.50
2023-04-29T03:38:47.340Z,8.13
2023-04-29T03:41:22.181Z,9.05
2023-04-29T03:43:56.432Z,9.52
2023-04-29T03:46:32.409Z,8.98
2023-04-29T03:49:07.795Z,9.60
2023-04-29T03:51:41.486Z,9.48
2023-04-29T03:54:20.429Z,9.15
2023-04-29T03:56:54.993Z,9.23
2023-04-29T03:59:30.492Z,9.90
2023-04-29T04:02:06.384Z,10.40
2023-04-29T04:04:40.693Z,9.37
2023-04-29T04:07:15.123Z,9.10
2023-04-29T04:10:06.987Z,8.60
2023-04-29T04:12:42.862Z,9.20
2023-04-29T04:15:18.641Z,8.90
2023-04-29T04:17:55.263Z,9.17
2023-04-29T04:20:28.635Z,8.70
2023-04-29T04:23:01.961Z,7.83
2023-04-29T04:25:36.258Z,8.93
2023-04-29T04:28:23.943Z,8.57
2023-04-29T04:31:18.559Z,7.87
2023-04-29T04:33:54.096Z,7.40
2023-04-29T04:36:27.290Z,7.00
2023-04-29T04:39:01.368Z,6.87
2023-04-29T04:41:34.955Z,6.53
2023-04-29T04:44:08.851Z,7.10
2023-04-29T04:46:52.528Z,6.60
2023-04-29T04:49:48.032Z,6.60
2023-04-29T04:52:23.494Z,7.07
2023-04-29T04:55:08.275Z,6.03
2023-04-29T04:57:53.566Z,6.67
2023-04-29T05:00:26.802Z,6.80
2023-04-29T05:03:06.436Z,6.70
2023-04-29T05:06:02.187Z,6.27
2023-04-29T05:08:39.074Z,6.80
2023-04-29T05:11:23.260Z,6.03
2023-04-29T05:14:11.748Z,5.60
2023-04-29T05:16:49.094Z,5.53
2023-04-29T05:19:22.821Z,6.10
2023-04-29T05:21:58.343Z,6.43
2023-04-29T05:24:32.247Z,6.33
2023-04-29T05:27:06.930Z,6.03
2023-04-29T05:29:41.351Z,6.43
2023-04-29T05:32:15.181Z,6.50
2023-04-29T05:34:48.693Z,6.83
2023-04-29T05:37:24.048Z,6.67
2023-04-29T05:40:10.071Z,5.93
2023-04-29T05:42:43.108Z,6.73
2023-04-29T05:45:17.600Z,5.77
2023-04-29T05:47:51.212Z,6.20
2023-04-29T05:50:25.603Z,6.23
2023-04-29T05:53:03.344Z,5.97
2023-04-29T05:55:37.709Z,6.50
2023-04-29T05:58:11.421Z,6.70
2023-04-29T06:00:45.128Z,6.87
2023-04-29T06:03:25.007Z,6.07
2023-04-29T06:06:18.843Z,6.77
2023-04-29T06:09:27.060Z,5.83
2023-04-29T06:12:11.143Z,5.77
2023-04-29T06:14:45.802Z,6.13
2023-04-29T06:17:24.482Z,6.30
2023-04-29T06:19:59.146Z,4.97
2023-04-29T06:22:33.372Z,5.73
2023-04-29T06:25:15.587Z,5.80
2023-04-29T06:27:56.465Z,6.30
2023-04-29T06:30:32.648Z,6.00
2023-04-29T06:33:07.814Z,5.90
2023-04-29T06:35:48.901Z,6.07
2023-04-29T06:38:45.457Z,6.37
2023-04-29T06:41:53.772Z,6.60
2023-04-29T06:44:47.457Z,6.20
2023-04-29T06:47:33.479Z,6.37
2023-04-29T06:50:19.686Z,6.03
2023-04-29T06:52:52.933Z,5.60
2023-04-29T06:55:31.351Z,5.80
2023-04-29T06:58:12.388Z,5.73
2023-04-29T07:00:49.768Z,6.13
2023-04-29T07:03:26.226Z,6.30
2023-04-29T07:06:01.101Z,6.20
2023-04-29T07:08:37.920Z,6.50
2023-04-29T07:11:14.135Z,6.63
2023-04-29T07:13:51.203Z,6.13
2023-04-29T07:16:27.782Z,6.27
2023-04-29T07:19:01.792Z,6.17
2023-04-29T07:21:40.434Z,6.43
2023-04-29T07:24:15.204Z,6.67
2023-04-29T07:26:52.970Z,6.60
2023-04-29T07:29:29.178Z,7.13
2023-04-29T07:32:04.123Z,5.97
2023-04-29T07:34:37.999Z,5.40
2023-04-29T07:37:15.331Z,8.33
2023-04-29T07:39:52.620Z,5.90
2023-04-29T07:42:34.927Z,6.50
2023-04-29T07:45:12.876Z,5.63
2023-04-29T07:47:47.375Z,6.07
2023-04-29T07:50:22.480Z,5.10
2023-04-29T07:52:59.063Z,4.90
2023-04-29T07:55:33.373Z,6.10
2023-04-29T07:58:09.547Z,5.57
2023-04-29T08:00:44.882Z,4.93
2023-04-29T08:03:23.976Z,5.80
2023-04-29T08:06:00.353Z,4.90
2023-04-29T08:08:36.538Z,5.87
2023-04-29T08:11:12.700Z,5.77
2023-04-29T08:13:46.734Z,5.10
2023-04-29T08:16:24.515Z,5.40
2023-04-29T08:19:02.702Z,5.10
2023-04-29T08:21:36.443Z,5.73
2023-04-29T08:24:10.175Z,5.43
2023-04-29T08:26:45.174Z,5.70
2023-04-29T08:29:18.816Z,5.87
2023-04-29T08:31:54.101Z,5.83
2023-04-29T08:34:27.688Z,5.40
2023-04-29T08:37:02.263Z,5.30
2023-04-29T08:39:35.927Z,5.67
2023-04-29T08:42:14.115Z,6.17
2023-04-29T08:44:52.224Z,5.57
2023-04-29T08:47:28.878Z,5.63
2023-04-29T08:50:05.551Z,5.70
2023-04-29T08:52:39.078Z,5.57
2023-04-29T08:55:14.560Z,5.53
2023-04-29T08:57:48.852Z,5.17
2023-04-29T09:00:23.710Z,5.20
2023-04-29T09:03:01.370Z,4.77
2023-04-29T09:05:34.985Z,5.30
2023-04-29T09:08:09.509Z,5.07
2023-04-29T09:10:44.181Z,5.43
2023-04-29T09:13:29.617Z,4.70
2023-04-29T09:16:03.355Z,5.70
2023-04-29T09:18:52.235Z,5.43
2023-04-29T09:21:26.890Z,6.53
2023-04-29T09:24:00.742Z,5.10
2023-04-29T09:26:44.511Z,6.07
2023-04-29T09:29:20.014Z,6.03
2023-04-29T09:31:55.082Z,5.63
2023-04-29T09:34:43.611Z,6.43
2023-04-29T09:37:29.419Z,5.50
2023-04-29T09:40:05.284Z,6.00
2023-04-29T09:42:47.041Z,6.53
2023-04-29T09:45:39.817Z,6.60
2023-04-29T09:48:15.008Z,6.90
2023-04-29T09:51:05.258Z,6.37
2023-04-29T09:53:40.529Z,7.13
2023-04-29T09:56:14.561Z,6.97
2023-04-29T09:58:48.233Z,6.77
2023-04-29T10:01:23.513Z,7.03
2023-04-29T10:03:59.089Z,6.97
2023-04-29T10:06:33.953Z,7.10
2023-04-29T10:09:07.123Z,6.73
2023-04-29T10:11:40.512Z,7.07
2023-04-29T10:14:18.811Z,6.37
2023-04-29T10:16:52.988Z,6.47
2023-04-29T10:19:37.291Z,6.93
2023-04-29T10:22:16.322Z,6.33
2023-04-29T10:24:50.469Z,6.87
2023-04-29T10:27:25.576Z,8.17
2023-04-29T10:30:00.772Z,7.90
2023-04-29T10:32:49.715Z,6.90
2023-04-29T10:35:26.095Z,6.07
2023-04-29T10:38:03.414Z,6.30
2023-04-29T10:40:40.987Z,5.63
2023-04-29T10:43:14.364Z,5.57
2023-04-29T10:45:47.765Z,5.97
2023-04-29T10:48:23.407Z,6.37
2023-04-29T10:51:08.801Z,6.20
2023-04-29T10:54:04.587Z,6.57
2023-04-29T10:56:45.717Z,6.30
2023-04-29T10:59:19.886Z,5.77
2023-04-29T11:01:55.113Z,6.13
2023-04-29T11:04:29.230Z,5.90
2023-04-29T11:07:04.253Z,5.97
2023-04-29T11:09:40.808Z,5.57
2023-04-29T11:12:15.142Z,6.60
2023-04-29T11:14:53.720Z,6.27
2023-04-29T11:17:29.102Z,5.70
2023-04-29T11:20:02.157Z,5.87
2023-04-29T11:22:35.652Z,5.77
2023-04-29T11:25:15.046Z,7.23
2023-04-29T11:27:50.590Z,7.27
2023-04-29T11:30:26.074Z,6.47
2023-04-29T11:33:03.161Z,11.43
2023-04-29T11:35:37.102Z,11.77
2023-04-29T11:38:11.292Z,6.93
2023-04-29T11:40:54.193Z,23.63
2023-04-29T11:43:28.225Z,15.60
2023-04-29T11:46:01.562Z,10.97
2023-04-29T11:48:35.021Z,9.07
2023-04-29T11:51:08.921Z,13.30
2023-04-29T11:53:42.596Z,6.13
2023-04-29T11:56:18.093Z,7.93
2023-04-29T11:58:52.012Z,7.00
2023-04-29T12:01:25.798Z,7.13
2023-04-29T12:04:06.058Z,6.73
2023-04-29T12:06:39.881Z,8.00
2023-04-29T12:09:14.377Z,7.53
2023-04-29T12:11:51.581Z,7.47
2023-04-29T12:14:25.609Z,6.90
2023-04-29T12:17:00.817Z,6.57
2023-04-29T12:19:34.902Z,8.03
2023-04-29T12:22:09.224Z,7.23
2023-04-29T12:24:43.345Z,6.63
2023-04-29T12:27:18.948Z,7.03
2023-04-29T12:29:52.654Z,6.93
2023-04-29T12:32:30.107Z,7.37
2023-04-29T12:35:03.999Z,7.00
2023-04-29T12:37:38.646Z,6.97
2023-04-29T12:40:19.966Z,8.10
2023-04-29T12:42:57.397Z,7.67
2023-04-29T12:45:36.040Z,7.53
2023-04-29T12:48:15.117Z,7.57
2023-04-29T12:50:59.979Z,7.87
2023-04-29T12:53:35.800Z,7.70
2023-04-29T12:56:09.800Z,7.30
2023-04-29T12:58:45.009Z,8.53
2023-04-29T13:01:18.753Z,7.67
2023-04-29T13:03:53.124Z,7.90
2023-04-29T13:06:27.309Z,7.80
2023-04-29T13:09:04.086Z,7.97
2023-04-29T13:11:39.659Z,7.20
2023-04-29T13:14:15.723Z,7.93
2023-04-29T13:16:54.191Z,8.10
2023-04-29T13:19:43.483Z,8.30
2023-04-29T13:22:20.604Z,8.20
2023-04-29T13:24:54.883Z,7.93
2023-04-29T13:27:28.404Z,7.23
2023-04-29T13:30:05.953Z,9.13
2023-04-29T13:32:45.019Z,8.50
2023-04-29T13:35:24.438Z,8.30
2023-04-29T13:37:58.408Z,8.67
2023-04-29T13:40:31.774Z,9.03
2023-04-29T13:43:07.163Z,8.87
2023-04-29T13:45:46.495Z,8.80
2023-04-29T13:53:56.808Z,8.33
2023-04-29T13:57:21.572Z,8.50
2023-04-29T14:04:40.010Z,8.83
2023-04-29T14:07:14.320Z,10.60
2023-04-29T14:09:50.737Z,9.57
2023-04-29T14:12:24.228Z,8.53
2023-04-29T14:15:00.115Z,8.70
2023-04-29T14:17:37.159Z,8.40
2023-04-29T14:20:20.154Z,8.63
2023-04-29T14:23:03.915Z,8.70
2023-04-29T14:25:37.881Z,9.97
2023-04-29T14:28:11.394Z,8.50
2023-04-29T14:30:46.827Z,8.70
2023-04-29T14:33:21.914Z,9.00
2023-04-29T14:35:54.847Z,9.03
2023-04-29T14:38:28.170Z,9.63
2023-04-29T14:41:01.190Z,9.13
2023-04-29T14:43:34.534Z,9.87
2023-04-29T14:46:11.500Z,8.97
2023-04-29T14:48:49.790Z,9.17
2023-04-29T14:51:23.852Z,9.90
2023-04-29T14:53:57.582Z,9.17
2023-04-29T14:56:31.384Z,9.47
2023-04-29T14:59:04.769Z,9.83
2023-04-29T15:01:40.984Z,10.40
2023-04-29T15:04:18.482Z,9.30
2023-04-29T15:06:52.305Z,9.43
2023-04-29T15:09:26.119Z,9.90
2023-04-29T15:11:59.327Z,9.70
2023-04-29T15:14:32.271Z,9.80
2023-04-29T15:17:05.294Z,10.23
2023-04-29T15:19:43.281Z,10.63
2023-04-29T15:22:16.348Z,10.30
2023-04-29T15:24:50.901Z,10.47
2023-04-29T15:27:25.208Z,10.27
2023-04-29T15:30:19.041Z,10.07
2023-04-29T15:33:07.266Z,10.07
2023-04-29T15:35:52.391Z,10.20
2023-04-29T15:38:32.269Z,9.60
2023-04-29T15:41:05.573Z,9.73
2023-04-29T15:43:39.054Z,10.30
2023-04-29T15:46:14.380Z,9.63
2023-04-29T15:48:48.283Z,9.87
2023-04-29T15:51:23.952Z,9.87
2023-04-29T15:53:58.344Z,10.20
2023-04-29T15:56:31.881Z,10.07
2023-04-29T15:59:16.816Z,9.70
2023-04-29T16:02:21.399Z,10.60
2023-04-29T16:04:55.296Z,9.97
2023-04-29T16:07:33.591Z,10.57
2023-04-29T16:10:08.169Z,10.37
2023-04-29T16:12:42.065Z,9.50
2023-04-29T16:15:15.567Z,10.67
2023-04-29T16:17:48.960Z,9.90
2023-04-29T16:20:22.618Z,11.13
2023-04-29T16:22:57.388Z,10.03
2023-04-29T16:25:31.141Z,9.60
2023-04-29T16:28:08.959Z,9.23
2023-04-29T16:30:42.193Z,10.97
2023-04-29T16:33:15.590Z,10.37
2023-04-29T16:35:49.283Z,10.53
2023-04-29T16:38:24.819Z,10.77
2023-04-29T16:40:58.271Z,10.67
2023-04-29T16:43:31.213Z,10.00
2023-04-29T16:46:04.857Z,10.63
2023-04-29T16:48:38.708Z,10.30
2023-04-29T16:51:12.371Z,10.07
2023-04-29T16:53:47.238Z,10.57
2023-04-29T16:56:20.352Z,10.47
2023-04-29T16:58:54.742Z,10.70
2023-04-29T17:01:28.599Z,10.47
2023-04-29T17:04:03.358Z,11.30
2023-04-29T17:06:38.280Z,10.90
2023-04-29T17:09:14.014Z,10.10
2023-04-29T17:11:48.155Z,10.03
2023-04-29T17:14:22.061Z,10.80
2023-04-29T17:16:55.401Z,10.57
2023-04-29T17:19:29.797Z,11.60
2023-04-29T17:22:03.245Z,10.43
2023-04-29T17:24:38.292Z,11.47
2023-04-29T17:27:13.074Z,10.93
2023-04-29T17:29:47.250Z,11.50
2023-04-29T17:32:26.670Z,11.37
2023-04-29T17:35:01.065Z,10.70
2023-04-29T17:37:34.724Z,10.57
2023-04-29T17:40:11.358Z,10.60
2023-04-29T17:42:45.041Z,10.33
2023-04-29T17:45:19.017Z,11.37
2023-04-29T17:47:53.052Z,11.87
2023-04-29T17:50:27.407Z,10.93
2023-04-29T17:53:00.885Z,10.70
2023-04-29T17:55:35.721Z,11.40
2023-04-29T17:58:08.739Z,10.53
2023-04-29T18:00:42.876Z,10.80
2023-04-29T18:03:16.146Z,11.33
2023-04-29T18:05:49.892Z,11.93
2023-04-29T18:08:23.629Z,11.03
2023-04-29T18:10:59.210Z,10.97
2023-04-29T18:13:32.496Z,10.17
2023-04-29T18:16:05.644Z,10.57
2023-04-29T18:18:39.728Z,10.80
2023-04-29T18:21:13.051Z,11.13
2023-04-29T18:23:46.486Z,11.13
2023-04-29T18:26:22.448Z,11.23
2023-04-29T18:28:55.902Z,11.37
2023-04-29T18:31:29.946Z,11.10
2023-04-29T18:34:03.469Z,11.73
2023-04-29T18:36:36.754Z,10.40
2023-04-29T18:39:10.402Z,11.20
2023-04-29T18:41:45.973Z,11.30
2023-04-29T18:44:19.689Z,12.70
2023-04-29T18:46:53.130Z,10.83
2023-04-29T18:49:26.909Z,11.03
2023-04-29T18:52:02.808Z,11.93
2023-04-29T18:54:36.844Z,10.80
2023-04-29T18:57:12.594Z,11.00
2023-04-29T18:59:45.813Z,11.10
2023-04-29T19:02:19.337Z,12.00
2023-04-29T19:04:53.253Z,11.30
2023-04-29T19:07:26.115Z,11.07
2023-04-29T19:09:58.899Z,11.83
2023-04-29T19:12:33.552Z,11.73
2023-04-29T19:15:06.848Z,12.20
2023-04-29T19:17:40.334Z,11.43
2023-04-29T19:20:14.727Z,12.77
2023-04-29T19:22:48.337Z,11.10
2023-04-29T19:25:22.361Z,12.60
2023-04-29T19:27:58.006Z,12.70
2023-04-29T19:30:32.006Z,11.93
2023-04-29T19:33:05.851Z,12.87
2023-04-29T19:35:39.409Z,11.77
2023-04-29T19:38:13.187Z,13.23
2023-04-29T19:40:46.961Z,12.23
2023-04-29T19:43:22.525Z,12.97
2023-04-29T19:45:55.939Z,12.70
2023-04-29T19:48:29.176Z,12.73
2023-04-29T19:51:02.977Z,12.43
2023-04-29T19:53:35.910Z,13.87
2023-04-29T19:56:09.193Z,13.63
2023-04-29T19:58:44.493Z,12.30
2023-04-29T20:01:18.279Z,12.13
2023-04-29T20:03:51.984Z,12.40
2023-04-29T20:06:24.940Z,11.93
2023-04-29T20:08:58.073Z,13.87
2023-04-29T20:11:30.828Z,14.67
2023-04-29T20:14:06.300Z,13.13
2023-04-29T20:16:39.857Z,13.33
2023-04-29T20:19:13.335Z,12.63
2023-04-29T20:21:46.382Z,12.47
2023-04-29T20:24:19.847Z,13.07
2023-04-29T20:26:52.947Z,13.07
2023-04-29T20:29:28.677Z,12.30
2023-04-29T20:32:01.449Z,13.37
2023-04-29T20:34:35.211Z,14.67
2023-04-29T20:37:08.882Z,13.10
2023-04-29T20:39:42.440Z,12.73
2023-04-29T20:42:15.884Z,11.27
2023-04-29T20:44:51.057Z,12.70
2023-04-29T20:47:24.280Z,12.63
2023-04-29T20:49:57.118Z,13.20
2023-04-29T20:52:30.494Z,15.90
2023-04-29T20:55:03.272Z,14.00
2023-04-29T20:57:36.298Z,13.83
2023-04-29T21:00:13.059Z,14.80
2023-04-29T21:02:46.686Z,12.80
2023-04-29T21:05:20.218Z,13.50
2023-04-29T21:08:15.226Z,15.40
2023-04-29T21:10:48.788Z,17.50
2023-04-29T21:13:22.086Z,14.63
2023-04-29T21:15:56.634Z,12.27
2023-04-29T21:18:32.521Z,12.77
2023-04-29T21:21:05.662Z,11.77
2023-04-29T21:23:39.081Z,12.63
2023-04-29T21:26:12.672Z,13.83
2023-04-29T21:28:46.032Z,11.93
2023-04-29T21:31:27.212Z,12.87
2023-04-29T21:34:00.673Z,16.30
2023-04-29T21:36:35.014Z,13.63
2023-04-29T21:39:08.761Z,13.93
2023-04-29T21:41:45.305Z,13.90
2023-04-29T21:44:18.929Z,14.30
2023-04-29T21:46:54.048Z,13.53
2023-04-29T21:49:27.295Z,18.07
2023-04-29T21:52:00.528Z,14.90
2023-04-29T21:54:34.195Z,13.73
2023-04-29T21:57:07.784Z,14.10
2023-04-29T21:59:40.833Z,13.37
2023-04-29T22:02:23.745Z,13.17
2023-04-29T22:04:57.221Z,13.83
2023-04-29T22:07:30.309Z,14.03
2023-04-29T22:10:03.578Z,14.33
2023-04-29T22:12:37.211Z,14.13
2023-04-29T22:15:26.922Z,13.57
2023-04-29T22:18:03.957Z,13.17
2023-04-29T22:20:37.238Z,15.07
2023-04-29T22:23:10.486Z,13.93
2023-04-29T22:25:46.476Z,14.10
2023-04-29T22:28:20.242Z,14.57
2023-04-29T22:30:54.089Z,15.27
2023-04-29T22:33:29.621Z,15.60
2023-04-29T22:36:02.727Z,15.57
2023-04-29T22:38:36.395Z,14.60
2023-04-29T22:41:10.812Z,15.10
2023-04-29T22:43:43.876Z,15.13
2023-04-29T22:46:16.761Z,15.60
2023-04-29T22:48:51.449Z,15.13
2023-04-29T22:51:24.390Z,15.47
2023-04-29T22:53:57.637Z,14.07
2023-04-29T22:56:30.862Z,15.43
2023-04-29T22:59:04.484Z,14.80
2023-04-29T23:01:37.874Z,15.83
2023-04-29T23:04:13.186Z,16.70
2023-04-29T23:06:46.900Z,16.47
2023-04-29T23:09:20.676Z,17.07
2023-04-29T23:11:54.252Z,18.33
2023-04-29T23:14:27.840Z,17.10
2023-04-29T23:17:01.157Z,17.30
2023-04-29T23:19:36.116Z,17.50
2023-04-29T23:22:10.195Z,18.23
2023-04-29T23:24:43.906Z,17.33
2023-04-29T23:27:17.172Z,17.07
2023-04-29T23:29:50.809Z,19.03
2023-04-29T23:32:26.063Z,18.33
2023-04-29T23:35:01.491Z,19.00
2023-04-29T23:37:34.325Z,19.25
2023-04-29T23:40:08.615Z,17.70
2023-04-29T23:42:41.849Z,18.10
2023-04-29T23:45:15.269Z,18.13
2023-04-29T23:47:48.683Z,17.83
2023-04-29T23:50:23.572Z,17.83
2023-04-29T23:52:56.791Z,18.83
2023-04-29T23:55:29.560Z,19.52
2023-04-29T23:58:03.164Z,18.45
